sensor_id;sensor_type;location;lat;lon;timestamp;P1;durP1;ratioP1;P2;durP2;ratioP2
64903;SDS011;51401;48.882;12.598;2022-07-04T00:02:10;2.10;;;1.90;;
64903;SDS011;51401;48.882;12.598;2022-07-04T00:04:35;1.95;;;1.73;;
64903;SDS011;51401;48.882;12.598;2022-07-04T00:07:01;2.05;;;1.85;;
64903;SDS011;51401;48.882;12.598;2022-07-04T00:09:26;2.30;;;2.10;;
64903;SDS011;51401;48.882;12.598;2022-07-04T00:11:51;2.00;;;1.88;;
64903;SDS011;51401;48.882;12.598;2022-07-04T00:14:17;2.97;;;2.20;;
64903;SDS011;51401;48.882;12.598;2022-07-04T00:16:42;2.63;;;2.42;;
64903;SDS011;51401;48.882;12.598;2022-07-04T00:19:07;2.27;;;2.07;;
64903;SDS011;51401;48.882;12.598;2022-07-04T00:21:32;2.33;;;2.00;;
64903;SDS011;51401;48.882;12.598;2022-07-04T00:23:58;1.73;;;1.63;;
64903;SDS011;51401;48.882;12.598;2022-07-04T00:26:33;3.25;;;2.03;;
64903;SDS011;51401;48.882;12.598;2022-07-04T00:28:58;3.78;;;2.42;;
64903;SDS011;51401;48.882;12.598;2022-07-04T00:31:23;2.50;;;2.30;;
64903;SDS011;51401;48.882;12.598;2022-07-04T00:33:49;3.25;;;2.05;;
64903;SDS011;51401;48.882;12.598;2022-07-04T00:36:14;2.33;;;2.00;;
64903;SDS011;51401;48.882;12.598;2022-07-04T00:38:39;3.55;;;2.03;;
64903;SDS011;51401;48.882;12.598;2022-07-04T00:41:05;2.45;;;2.00;;
64903;SDS011;51401;48.882;12.598;2022-07-04T00:43:30;2.83;;;2.25;;
64903;SDS011;51401;48.882;12.598;2022-07-04T00:45:56;2.50;;;2.30;;
64903;SDS011;51401;48.882;12.598;2022-07-04T00:48:21;3.20;;;2.20;;
64903;SDS011;51401;48.882;12.598;2022-07-04T00:50:47;2.25;;;2.05;;
64903;SDS011;51401;48.882;12.598;2022-07-04T00:53:20;3.50;;;2.42;;
64903;SDS011;51401;48.882;12.598;2022-07-04T00:55:47;2.30;;;2.10;;
64903;SDS011;51401;48.882;12.598;2022-07-04T00:58:12;2.90;;;2.30;;
64903;SDS011;51401;48.882;12.598;2022-07-04T01:00:38;2.17;;;1.98;;
64903;SDS011;51401;48.882;12.598;2022-07-04T01:03:03;2.40;;;2.20;;
64903;SDS011;51401;48.882;12.598;2022-07-04T01:05:29;2.20;;;2.00;;
64903;SDS011;51401;48.882;12.598;2022-07-04T01:07:54;2.80;;;1.92;;
64903;SDS011;51401;48.882;12.598;2022-07-04T01:10:20;2.28;;;1.95;;
64903;SDS011;51401;48.882;12.598;2022-07-04T01:12:45;2.65;;;2.13;;
64903;SDS011;51401;48.882;12.598;2022-07-04T01:15:10;2.50;;;2.30;;
64903;SDS011;51401;48.882;12.598;2022-07-04T01:17:36;2.72;;;2.50;;
64903;SDS011;51401;48.882;12.598;2022-07-04T01:20:01;2.80;;;2.28;;
64903;SDS011;51401;48.882;12.598;2022-07-04T01:22:27;2.03;;;1.85;;
64903;SDS011;51401;48.882;12.598;2022-07-04T01:24:53;3.83;;;2.17;;
64903;SDS011;51401;48.882;12.598;2022-07-04T01:27:18;3.75;;;2.40;;
64903;SDS011;51401;48.882;12.598;2022-07-04T01:29:44;4.93;;;2.58;;
64903;SDS011;51401;48.882;12.598;2022-07-04T01:32:09;4.18;;;2.22;;
64903;SDS011;51401;48.882;12.598;2022-07-04T01:34:35;2.60;;;2.40;;
64903;SDS011;51401;48.882;12.598;2022-07-04T01:37:01;2.88;;;2.40;;
64903;SDS011;51401;48.882;12.598;2022-07-04T01:39:27;3.17;;;2.10;;
64903;SDS011;51401;48.882;12.598;2022-07-04T01:41:53;2.67;;;2.15;;
64903;SDS011;51401;48.882;12.598;2022-07-04T01:44:19;2.45;;;2.20;;
64903;SDS011;51401;48.882;12.598;2022-07-04T01:46:45;2.58;;;2.28;;
64903;SDS011;51401;48.882;12.598;2022-07-04T01:49:10;2.63;;;2.33;;
64903;SDS011;51401;48.882;12.598;2022-07-04T01:51:35;2.77;;;2.10;;
64903;SDS011;51401;48.882;12.598;2022-07-04T01:54:07;2.83;;;2.25;;
64903;SDS011;51401;48.882;12.598;2022-07-04T01:56:33;2.70;;;2.22;;
64903;SDS011;51401;48.882;12.598;2022-07-04T01:58:58;2.38;;;2.03;;
64903;SDS011;51401;48.882;12.598;2022-07-04T02:01:24;2.42;;;2.22;;
64903;SDS011;51401;48.882;12.598;2022-07-04T02:03:55;3.30;;;2.75;;
64903;SDS011;51401;48.882;12.598;2022-07-04T02:06:22;3.33;;;2.70;;
64903;SDS011;51401;48.882;12.598;2022-07-04T02:08:47;2.63;;;2.42;;
64903;SDS011;51401;48.882;12.598;2022-07-04T02:11:31;3.60;;;2.10;;
64903;SDS011;51401;48.882;12.598;2022-07-04T02:14:15;2.85;;;2.30;;
64903;SDS011;51401;48.882;12.598;2022-07-04T02:16:40;2.75;;;2.30;;
64903;SDS011;51401;48.882;12.598;2022-07-04T02:19:06;2.40;;;2.20;;
64903;SDS011;51401;48.882;12.598;2022-07-04T02:21:31;2.33;;;2.13;;
64903;SDS011;51401;48.882;12.598;2022-07-04T02:23:57;3.15;;;2.65;;
64903;SDS011;51401;48.882;12.598;2022-07-04T02:26:22;6.10;;;3.38;;
64903;SDS011;51401;48.882;12.598;2022-07-04T02:28:47;2.42;;;2.20;;
64903;SDS011;51401;48.882;12.598;2022-07-04T02:31:13;4.88;;;2.58;;
64903;SDS011;51401;48.882;12.598;2022-07-04T02:33:38;3.28;;;2.55;;
64903;SDS011;51401;48.882;12.598;2022-07-04T02:36:03;3.35;;;2.25;;
64903;SDS011;51401;48.882;12.598;2022-07-04T02:38:29;3.42;;;2.53;;
64903;SDS011;51401;48.882;12.598;2022-07-04T02:40:55;3.00;;;2.67;;
64903;SDS011;51401;48.882;12.598;2022-07-04T02:43:20;2.83;;;2.60;;
64903;SDS011;51401;48.882;12.598;2022-07-04T02:45:45;3.40;;;2.60;;
64903;SDS011;51401;48.882;12.598;2022-07-04T02:48:11;3.42;;;2.45;;
64903;SDS011;51401;48.882;12.598;2022-07-04T02:50:36;2.83;;;2.57;;
64903;SDS011;51401;48.882;12.598;2022-07-04T02:53:01;2.80;;;2.50;;
64903;SDS011;51401;48.882;12.598;2022-07-04T02:55:27;3.72;;;2.45;;
64903;SDS011;51401;48.882;12.598;2022-07-04T02:57:52;2.90;;;2.58;;
64903;SDS011;51401;48.882;12.598;2022-07-04T03:00:17;3.00;;;2.70;;
64903;SDS011;51401;48.882;12.598;2022-07-04T03:02:43;3.75;;;2.50;;
64903;SDS011;51401;48.882;12.598;2022-07-04T03:05:08;3.60;;;2.47;;
64903;SDS011;51401;48.882;12.598;2022-07-04T03:07:33;3.03;;;2.72;;
64903;SDS011;51401;48.882;12.598;2022-07-04T03:09:59;2.67;;;2.33;;
64903;SDS011;51401;48.882;12.598;2022-07-04T03:12:24;3.38;;;2.60;;
64903;SDS011;51401;48.882;12.598;2022-07-04T03:14:49;2.78;;;2.33;;
64903;SDS011;51401;48.882;12.598;2022-07-04T03:17:15;4.15;;;2.40;;
64903;SDS011;51401;48.882;12.598;2022-07-04T03:19:40;3.47;;;2.43;;
64903;SDS011;51401;48.882;12.598;2022-07-04T03:22:05;2.92;;;2.72;;
64903;SDS011;51401;48.882;12.598;2022-07-04T03:24:31;4.75;;;2.30;;
64903;SDS011;51401;48.882;12.598;2022-07-04T03:26:56;3.63;;;2.70;;
64903;SDS011;51401;48.882;12.598;2022-07-04T03:29:21;2.67;;;2.47;;
64903;SDS011;51401;48.882;12.598;2022-07-04T03:31:46;2.65;;;2.42;;
64903;SDS011;51401;48.882;12.598;2022-07-04T03:34:12;2.75;;;2.47;;
64903;SDS011;51401;48.882;12.598;2022-07-04T03:36:37;3.20;;;2.47;;
64903;SDS011;51401;48.882;12.598;2022-07-04T03:39:03;3.38;;;2.60;;
64903;SDS011;51401;48.882;12.598;2022-07-04T03:41:28;3.17;;;2.60;;
64903;SDS011;51401;48.882;12.598;2022-07-04T03:43:54;3.22;;;2.92;;
64903;SDS011;51401;48.882;12.598;2022-07-04T03:46:19;5.65;;;3.10;;
64903;SDS011;51401;48.882;12.598;2022-07-04T03:48:44;3.28;;;2.78;;
64903;SDS011;51401;48.882;12.598;2022-07-04T03:51:11;3.20;;;2.65;;
64903;SDS011;51401;48.882;12.598;2022-07-04T03:53:37;3.42;;;3.00;;
64903;SDS011;51401;48.882;12.598;2022-07-04T03:56:02;3.45;;;2.63;;
64903;SDS011;51401;48.882;12.598;2022-07-04T03:58:28;3.25;;;2.50;;
64903;SDS011;51401;48.882;12.598;2022-07-04T04:00:53;4.10;;;2.92;;
64903;SDS011;51401;48.882;12.598;2022-07-04T04:03:19;3.50;;;3.20;;
64903;SDS011;51401;48.882;12.598;2022-07-04T04:06:03;3.25;;;2.97;;
64903;SDS011;51401;48.882;12.598;2022-07-04T04:08:28;3.10;;;2.80;;
64903;SDS011;51401;48.882;12.598;2022-07-04T04:10:53;3.38;;;2.60;;
64903;SDS011;51401;48.882;12.598;2022-07-04T04:13:19;3.35;;;2.78;;
64903;SDS011;51401;48.882;12.598;2022-07-04T04:15:44;2.70;;;2.45;;
64903;SDS011;51401;48.882;12.598;2022-07-04T04:18:09;3.75;;;2.80;;
64903;SDS011;51401;48.882;12.598;2022-07-04T04:20:35;3.88;;;2.95;;
64903;SDS011;51401;48.882;12.598;2022-07-04T04:23:00;3.40;;;3.10;;
64903;SDS011;51401;48.882;12.598;2022-07-04T04:25:26;3.17;;;2.88;;
64903;SDS011;51401;48.882;12.598;2022-07-04T04:27:51;3.08;;;2.75;;
64903;SDS011;51401;48.882;12.598;2022-07-04T04:30:16;3.25;;;2.45;;
64903;SDS011;51401;48.882;12.598;2022-07-04T04:32:42;2.90;;;2.58;;
64903;SDS011;51401;48.882;12.598;2022-07-04T04:35:07;3.38;;;2.55;;
64903;SDS011;51401;48.882;12.598;2022-07-04T04:37:33;3.92;;;3.20;;
64903;SDS011;51401;48.882;12.598;2022-07-04T04:39:58;4.82;;;2.90;;
64903;SDS011;51401;48.882;12.598;2022-07-04T04:42:23;5.40;;;2.88;;
64903;SDS011;51401;48.882;12.598;2022-07-04T04:44:49;2.90;;;2.60;;
64903;SDS011;51401;48.882;12.598;2022-07-04T04:47:14;3.15;;;2.85;;
64903;SDS011;51401;48.882;12.598;2022-07-04T04:49:39;4.10;;;2.75;;
64903;SDS011;51401;48.882;12.598;2022-07-04T04:52:05;3.53;;;2.78;;
64903;SDS011;51401;48.882;12.598;2022-07-04T04:54:31;3.50;;;3.20;;
64903;SDS011;51401;48.882;12.598;2022-07-04T04:56:57;4.10;;;2.80;;
64903;SDS011;51401;48.882;12.598;2022-07-04T04:59:22;4.68;;;2.95;;
64903;SDS011;51401;48.882;12.598;2022-07-04T05:01:47;3.30;;;3.00;;
64903;SDS011;51401;48.882;12.598;2022-07-04T05:04:13;3.63;;;2.90;;
64903;SDS011;51401;48.882;12.598;2022-07-04T05:06:39;3.90;;;2.78;;
64903;SDS011;51401;48.882;12.598;2022-07-04T05:09:05;3.92;;;2.80;;
64903;SDS011;51401;48.882;12.598;2022-07-04T05:11:30;3.22;;;2.88;;
64903;SDS011;51401;48.882;12.598;2022-07-04T05:13:56;3.53;;;3.05;;
64903;SDS011;51401;48.882;12.598;2022-07-04T05:16:21;3.28;;;2.97;;
64903;SDS011;51401;48.882;12.598;2022-07-04T05:18:46;3.50;;;3.20;;
64903;SDS011;51401;48.882;12.598;2022-07-04T05:21:12;4.03;;;3.45;;
64903;SDS011;51401;48.882;12.598;2022-07-04T05:23:37;4.90;;;3.00;;
64903;SDS011;51401;48.882;12.598;2022-07-04T05:26:02;5.47;;;4.85;;
64903;SDS011;51401;48.882;12.598;2022-07-04T05:28:28;5.25;;;3.53;;
64903;SDS011;51401;48.882;12.598;2022-07-04T05:30:53;4.80;;;3.38;;
64903;SDS011;51401;48.882;12.598;2022-07-04T05:33:18;4.40;;;3.83;;
64903;SDS011;51401;48.882;12.598;2022-07-04T05:35:43;5.78;;;3.65;;
64903;SDS011;51401;48.882;12.598;2022-07-04T05:38:09;5.40;;;3.30;;
64903;SDS011;51401;48.882;12.598;2022-07-04T05:40:34;5.43;;;3.70;;
64903;SDS011;51401;48.882;12.598;2022-07-04T05:42:59;4.03;;;3.63;;
64903;SDS011;51401;48.882;12.598;2022-07-04T05:45:25;5.90;;;3.35;;
64903;SDS011;51401;48.882;12.598;2022-07-04T05:47:50;3.75;;;3.42;;
64903;SDS011;51401;48.882;12.598;2022-07-04T05:50:16;3.93;;;3.60;;
64903;SDS011;51401;48.882;12.598;2022-07-04T05:52:41;5.55;;;3.65;;
64903;SDS011;51401;48.882;12.598;2022-07-04T05:55:06;4.90;;;4.22;;
64903;SDS011;51401;48.882;12.598;2022-07-04T05:57:32;4.68;;;4.28;;
64903;SDS011;51401;48.882;12.598;2022-07-04T05:59:58;4.32;;;3.92;;
64903;SDS011;51401;48.882;12.598;2022-07-04T06:02:23;3.53;;;3.23;;
64903;SDS011;51401;48.882;12.598;2022-07-04T06:04:48;4.03;;;3.63;;
64903;SDS011;51401;48.882;12.598;2022-07-04T06:07:13;3.72;;;3.42;;
64903;SDS011;51401;48.882;12.598;2022-07-04T06:09:39;5.35;;;4.00;;
64903;SDS011;51401;48.882;12.598;2022-07-04T06:12:04;4.60;;;3.72;;
64903;SDS011;51401;48.882;12.598;2022-07-04T06:14:30;5.07;;;3.80;;
64903;SDS011;51401;48.882;12.598;2022-07-04T06:16:56;4.30;;;3.65;;
64903;SDS011;51401;48.882;12.598;2022-07-04T06:19:21;4.00;;;3.60;;
64903;SDS011;51401;48.882;12.598;2022-07-04T06:21:47;4.10;;;3.70;;
64903;SDS011;51401;48.882;12.598;2022-07-04T06:24:12;4.60;;;3.92;;
64903;SDS011;51401;48.882;12.598;2022-07-04T06:26:37;4.03;;;3.60;;
64903;SDS011;51401;48.882;12.598;2022-07-04T06:29:03;4.95;;;4.13;;
64903;SDS011;51401;48.882;12.598;2022-07-04T06:31:28;4.38;;;3.83;;
64903;SDS011;51401;48.882;12.598;2022-07-04T06:33:53;4.13;;;3.72;;
64903;SDS011;51401;48.882;12.598;2022-07-04T06:36:38;3.90;;;3.50;;
64903;SDS011;51401;48.882;12.598;2022-07-04T06:39:03;4.60;;;3.55;;
64903;SDS011;51401;48.882;12.598;2022-07-04T06:41:28;4.53;;;3.92;;
64903;SDS011;51401;48.882;12.598;2022-07-04T06:43:54;3.95;;;3.65;;
64903;SDS011;51401;48.882;12.598;2022-07-04T06:46:20;5.43;;;3.95;;
64903;SDS011;51401;48.882;12.598;2022-07-04T06:48:45;4.10;;;3.70;;
64903;SDS011;51401;48.882;12.598;2022-07-04T06:51:10;4.35;;;3.70;;
64903;SDS011;51401;48.882;12.598;2022-07-04T06:53:36;4.00;;;3.30;;
64903;SDS011;51401;48.882;12.598;2022-07-04T06:56:01;6.45;;;4.28;;
64903;SDS011;51401;48.882;12.598;2022-07-04T06:58:27;4.57;;;3.70;;
64903;SDS011;51401;48.882;12.598;2022-07-04T07:00:52;4.60;;;3.00;;
64903;SDS011;51401;48.882;12.598;2022-07-04T07:03:17;3.80;;;3.38;;
64903;SDS011;51401;48.882;12.598;2022-07-04T07:05:43;4.30;;;3.15;;
64903;SDS011;51401;48.882;12.598;2022-07-04T07:08:08;4.18;;;3.40;;
64903;SDS011;51401;48.882;12.598;2022-07-04T07:10:34;4.00;;;3.63;;
64903;SDS011;51401;48.882;12.598;2022-07-04T07:13:00;3.50;;;3.20;;
64903;SDS011;51401;48.882;12.598;2022-07-04T07:15:26;3.85;;;3.40;;
64903;SDS011;51401;48.882;12.598;2022-07-04T07:17:52;3.92;;;3.63;;
64903;SDS011;51401;48.882;12.598;2022-07-04T07:20:17;4.97;;;3.30;;
64903;SDS011;51401;48.882;12.598;2022-07-04T07:22:42;5.82;;;3.50;;
64903;SDS011;51401;48.882;12.598;2022-07-04T07:25:09;3.70;;;3.40;;
64903;SDS011;51401;48.882;12.598;2022-07-04T07:27:34;4.35;;;3.60;;
64903;SDS011;51401;48.882;12.598;2022-07-04T07:30:00;3.50;;;3.20;;
64903;SDS011;51401;48.882;12.598;2022-07-04T07:32:25;3.50;;;3.20;;
64903;SDS011;51401;48.882;12.598;2022-07-04T07:34:50;3.60;;;3.30;;
64903;SDS011;51401;48.882;12.598;2022-07-04T07:37:16;4.47;;;3.03;;
64903;SDS011;51401;48.882;12.598;2022-07-04T07:39:42;3.78;;;3.47;;
64903;SDS011;51401;48.882;12.598;2022-07-04T07:42:08;3.83;;;3.25;;
64903;SDS011;51401;48.882;12.598;2022-07-04T07:44:33;3.60;;;3.30;;
64903;SDS011;51401;48.882;12.598;2022-07-04T07:46:59;3.38;;;2.97;;
64903;SDS011;51401;48.882;12.598;2022-07-04T07:49:24;3.90;;;3.45;;
64903;SDS011;51401;48.882;12.598;2022-07-04T07:51:49;3.90;;;3.60;;
64903;SDS011;51401;48.882;12.598;2022-07-04T07:54:15;4.28;;;3.70;;
64903;SDS011;51401;48.882;12.598;2022-07-04T07:56:42;3.40;;;3.10;;
64903;SDS011;51401;48.882;12.598;2022-07-04T07:59:07;5.38;;;3.47;;
64903;SDS011;51401;48.882;12.598;2022-07-04T08:01:33;3.47;;;3.17;;
64903;SDS011;51401;48.882;12.598;2022-07-04T08:03:59;3.80;;;3.50;;
64903;SDS011;51401;48.882;12.598;2022-07-04T08:06:43;3.67;;;3.05;;
64903;SDS011;51401;48.882;12.598;2022-07-04T08:09:09;3.60;;;3.15;;
64903;SDS011;51401;48.882;12.598;2022-07-04T08:11:34;3.63;;;3.33;;
64903;SDS011;51401;48.882;12.598;2022-07-04T08:14:00;3.58;;;3.33;;
64903;SDS011;51401;48.882;12.598;2022-07-04T08:16:25;3.78;;;3.15;;
64903;SDS011;51401;48.882;12.598;2022-07-04T08:18:51;3.97;;;3.58;;
64903;SDS011;51401;48.882;12.598;2022-07-04T08:21:16;3.58;;;3.20;;
64903;SDS011;51401;48.882;12.598;2022-07-04T08:23:41;4.10;;;3.67;;
64903;SDS011;51401;48.882;12.598;2022-07-04T08:26:07;3.72;;;3.40;;
64903;SDS011;51401;48.882;12.598;2022-07-04T08:28:32;3.95;;;3.53;;
64903;SDS011;51401;48.882;12.598;2022-07-04T08:30:58;4.00;;;3.70;;
64903;SDS011;51401;48.882;12.598;2022-07-04T08:33:24;4.13;;;3.72;;
64903;SDS011;51401;48.882;12.598;2022-07-04T08:35:50;4.85;;;3.83;;
64903;SDS011;51401;48.882;12.598;2022-07-04T08:38:15;3.75;;;3.45;;
64903;SDS011;51401;48.882;12.598;2022-07-04T08:40:42;3.58;;;3.28;;
64903;SDS011;51401;48.882;12.598;2022-07-04T08:43:08;4.18;;;3.78;;
64903;SDS011;51401;48.882;12.598;2022-07-04T08:45:38;4.68;;;3.47;;
64903;SDS011;51401;48.882;12.598;2022-07-04T08:48:05;4.40;;;3.40;;
64903;SDS011;51401;48.882;12.598;2022-07-04T08:50:33;4.03;;;3.50;;
64903;SDS011;51401;48.882;12.598;2022-07-04T08:53:15;3.33;;;3.08;;
64903;SDS011;51401;48.882;12.598;2022-07-04T08:55:43;3.33;;;3.05;;
64903;SDS011;51401;48.882;12.598;2022-07-04T08:58:29;3.80;;;3.42;;
64903;SDS011;51401;48.882;12.598;2022-07-04T09:00:58;3.45;;;3.15;;
64903;SDS011;51401;48.882;12.598;2022-07-04T09:03:29;4.18;;;3.50;;
64903;SDS011;51401;48.882;12.598;2022-07-04T09:05:55;5.60;;;3.65;;
64903;SDS011;51401;48.882;12.598;2022-07-04T09:08:21;3.95;;;3.42;;
64903;SDS011;51401;48.882;12.598;2022-07-04T09:10:50;3.97;;;3.33;;
64903;SDS011;51401;48.882;12.598;2022-07-04T09:15:43;4.50;;;3.15;;
64903;SDS011;51401;48.882;12.598;2022-07-04T09:20:53;3.65;;;3.30;;
64903;SDS011;51401;48.882;12.598;2022-07-04T09:23:24;3.78;;;3.45;;
64903;SDS011;51401;48.882;12.598;2022-07-04T09:28:40;4.03;;;3.60;;
64903;SDS011;51401;48.882;12.598;2022-07-04T09:31:14;3.70;;;3.20;;
64903;SDS011;51401;48.882;12.598;2022-07-04T09:34:02;5.80;;;3.60;;
64903;SDS011;51401;48.882;12.598;2022-07-04T09:36:30;3.90;;;3.40;;
64903;SDS011;51401;48.882;12.598;2022-07-04T09:44:23;4.25;;;3.13;;
64903;SDS011;51401;48.882;12.598;2022-07-04T09:47:19;3.55;;;3.30;;
64903;SDS011;51401;48.882;12.598;2022-07-04T09:52:47;3.33;;;3.03;;
64903;SDS011;51401;48.882;12.598;2022-07-04T09:55:19;3.85;;;3.15;;
64903;SDS011;51401;48.882;12.598;2022-07-04T09:57:46;4.65;;;3.20;;
64903;SDS011;51401;48.882;12.598;2022-07-04T10:00:28;3.47;;;3.00;;
64903;SDS011;51401;48.882;12.598;2022-07-04T10:03:17;2.97;;;2.75;;
64903;SDS011;51401;48.882;12.598;2022-07-04T10:08:28;3.80;;;2.92;;
64903;SDS011;51401;48.882;12.598;2022-07-04T10:10:58;3.42;;;2.90;;
64903;SDS011;51401;48.882;12.598;2022-07-04T10:13:24;2.88;;;2.67;;
64903;SDS011;51401;48.882;12.598;2022-07-04T10:15:50;3.00;;;2.78;;
64903;SDS011;51401;48.882;12.598;2022-07-04T10:18:17;3.20;;;2.70;;
64903;SDS011;51401;48.882;12.598;2022-07-04T10:20:44;2.72;;;2.53;;
64903;SDS011;51401;48.882;12.598;2022-07-04T10:23:10;3.10;;;2.60;;
64903;SDS011;51401;48.882;12.598;2022-07-04T10:25:36;2.78;;;2.58;;
64903;SDS011;51401;48.882;12.598;2022-07-04T10:28:02;4.57;;;3.00;;
64903;SDS011;51401;48.882;12.598;2022-07-04T10:30:29;3.00;;;2.63;;
64903;SDS011;51401;48.882;12.598;2022-07-04T10:32:59;2.97;;;2.78;;
64903;SDS011;51401;48.882;12.598;2022-07-04T10:38:21;3.25;;;2.90;;
64903;SDS011;51401;48.882;12.598;2022-07-04T10:40:48;3.30;;;3.00;;
64903;SDS011;51401;48.882;12.598;2022-07-04T10:45:50;2.95;;;2.75;;
64903;SDS011;51401;48.882;12.598;2022-07-04T10:48:20;3.15;;;2.85;;
64903;SDS011;51401;48.882;12.598;2022-07-04T10:50:59;2.88;;;2.67;;
64903;SDS011;51401;48.882;12.598;2022-07-04T10:53:27;3.63;;;3.03;;
64903;SDS011;51401;48.882;12.598;2022-07-04T10:55:53;3.40;;;3.10;;
64903;SDS011;51401;48.882;12.598;2022-07-04T10:58:40;3.88;;;3.13;;
64903;SDS011;51401;48.882;12.598;2022-07-04T11:01:13;3.25;;;2.95;;
64903;SDS011;51401;48.882;12.598;2022-07-04T11:09:13;3.10;;;2.80;;
64903;SDS011;51401;48.882;12.598;2022-07-04T11:11:49;2.88;;;2.67;;
64903;SDS011;51401;48.882;12.598;2022-07-04T11:17:19;3.25;;;2.95;;
64903;SDS011;51401;48.882;12.598;2022-07-04T11:19:51;3.38;;;3.08;;
64903;SDS011;51401;48.882;12.598;2022-07-04T11:22:24;3.00;;;2.67;;
64903;SDS011;51401;48.882;12.598;2022-07-04T11:24:50;3.53;;;2.70;;
64903;SDS011;51401;48.882;12.598;2022-07-04T11:27:15;3.47;;;3.00;;
64903;SDS011;51401;48.882;12.598;2022-07-04T11:29:50;2.72;;;2.53;;
64903;SDS011;51401;48.882;12.598;2022-07-04T11:32:16;3.17;;;2.63;;
64903;SDS011;51401;48.882;12.598;2022-07-04T11:34:42;2.45;;;2.28;;
64903;SDS011;51401;48.882;12.598;2022-07-04T11:37:07;2.87;;;2.50;;
64903;SDS011;51401;48.882;12.598;2022-07-04T11:39:32;4.67;;;2.53;;
64903;SDS011;51401;48.882;12.598;2022-07-04T11:41:57;3.17;;;2.57;;
64903;SDS011;51401;48.882;12.598;2022-07-04T11:44:42;2.88;;;2.67;;
64903;SDS011;51401;48.882;12.598;2022-07-04T11:49:58;2.80;;;2.60;;
64903;SDS011;51401;48.882;12.598;2022-07-04T11:52:31;4.07;;;2.55;;
64903;SDS011;51401;48.882;12.598;2022-07-04T11:55:05;4.35;;;2.67;;
64903;SDS011;51401;48.882;12.598;2022-07-04T11:57:36;2.90;;;2.70;;
64903;SDS011;51401;48.882;12.598;2022-07-04T12:00:09;3.15;;;2.83;;
64903;SDS011;51401;48.882;12.598;2022-07-04T12:02:40;3.03;;;2.60;;
64903;SDS011;51401;48.882;12.598;2022-07-04T12:05:07;2.60;;;2.40;;
64903;SDS011;51401;48.882;12.598;2022-07-04T12:07:36;2.80;;;2.53;;
64903;SDS011;51401;48.882;12.598;2022-07-04T12:15:24;2.67;;;2.47;;
64903;SDS011;51401;48.882;12.598;2022-07-04T12:18:00;2.70;;;2.50;;
64903;SDS011;51401;48.882;12.598;2022-07-04T12:20:26;2.83;;;2.60;;
64903;SDS011;51401;48.882;12.598;2022-07-04T12:27:52;2.78;;;2.58;;
64903;SDS011;51401;48.882;12.598;2022-07-04T12:30:19;2.70;;;2.50;;
64903;SDS011;51401;48.882;12.598;2022-07-04T12:32:48;3.03;;;2.72;;
64903;SDS011;51401;48.882;12.598;2022-07-04T12:40:54;2.88;;;2.40;;
64903;SDS011;51401;48.882;12.598;2022-07-04T12:48:39;3.28;;;2.08;;
64903;SDS011;51401;48.882;12.598;2022-07-04T12:51:11;2.30;;;2.10;;
64903;SDS011;51401;48.882;12.598;2022-07-04T12:53:38;2.50;;;2.25;;
64903;SDS011;51401;48.882;12.598;2022-07-04T12:56:05;2.50;;;2.30;;
64903;SDS011;51401;48.882;12.598;2022-07-04T12:58:31;4.43;;;2.40;;
64903;SDS011;51401;48.882;12.598;2022-07-04T13:00:57;2.40;;;2.03;;
64903;SDS011;51401;48.882;12.598;2022-07-04T13:03:22;2.40;;;2.20;;
64903;SDS011;51401;48.882;12.598;2022-07-04T13:05:48;2.90;;;2.30;;
64903;SDS011;51401;48.882;12.598;2022-07-04T13:08:14;2.08;;;1.98;;
64903;SDS011;51401;48.882;12.598;2022-07-04T13:10:39;2.45;;;2.25;;
64903;SDS011;51401;48.882;12.598;2022-07-04T13:13:04;4.27;;;2.53;;
64903;SDS011;51401;48.882;12.598;2022-07-04T13:15:30;2.20;;;2.03;;
64903;SDS011;51401;48.882;12.598;2022-07-04T13:17:55;3.47;;;2.10;;
64903;SDS011;51401;48.882;12.598;2022-07-04T13:20:21;3.60;;;2.13;;
64903;SDS011;51401;48.882;12.598;2022-07-04T13:22:46;2.88;;;2.20;;
64903;SDS011;51401;48.882;12.598;2022-07-04T13:25:12;2.55;;;2.35;;
64903;SDS011;51401;48.882;12.598;2022-07-04T13:27:37;2.30;;;2.10;;
64903;SDS011;51401;48.882;12.598;2022-07-04T13:30:02;3.03;;;2.50;;
64903;SDS011;51401;48.882;12.598;2022-07-04T13:32:28;2.90;;;2.60;;
64903;SDS011;51401;48.882;12.598;2022-07-04T13:34:54;3.50;;;3.28;;
64903;SDS011;51401;48.882;12.598;2022-07-04T13:37:19;2.33;;;2.13;;
64903;SDS011;51401;48.882;12.598;2022-07-04T13:39:45;3.33;;;2.53;;
64903;SDS011;51401;48.882;12.598;2022-07-04T13:42:10;2.30;;;2.10;;
64903;SDS011;51401;48.882;12.598;2022-07-04T13:44:36;2.63;;;2.42;;
64903;SDS011;51401;48.882;12.598;2022-07-04T13:47:02;5.17;;;2.23;;
64903;SDS011;51401;48.882;12.598;2022-07-04T13:49:27;2.78;;;2.50;;
64903;SDS011;51401;48.882;12.598;2022-07-04T13:51:53;2.60;;;2.40;;
64903;SDS011;51401;48.882;12.598;2022-07-04T13:54:18;3.60;;;3.30;;
64903;SDS011;51401;48.882;12.598;2022-07-04T13:56:44;3.63;;;2.40;;
64903;SDS011;51401;48.882;12.598;2022-07-04T13:59:10;2.45;;;2.25;;
64903;SDS011;51401;48.882;12.598;2022-07-04T14:01:35;3.55;;;2.40;;
64903;SDS011;51401;48.882;12.598;2022-07-04T14:04:01;2.58;;;2.38;;
64903;SDS011;51401;48.882;12.598;2022-07-04T14:06:26;2.38;;;2.17;;
64903;SDS011;51401;48.882;12.598;2022-07-04T14:08:52;2.45;;;2.25;;
64903;SDS011;51401;48.882;12.598;2022-07-04T14:11:18;2.70;;;2.50;;
64903;SDS011;51401;48.882;12.598;2022-07-04T14:13:43;2.70;;;2.35;;
64903;SDS011;51401;48.882;12.598;2022-07-04T14:16:08;2.72;;;2.15;;
64903;SDS011;51401;48.882;12.598;2022-07-04T14:18:34;2.85;;;2.35;;
64903;SDS011;51401;48.882;12.598;2022-07-04T14:20:59;2.20;;;1.92;;
64903;SDS011;51401;48.882;12.598;2022-07-04T14:23:25;2.33;;;2.13;;
64903;SDS011;51401;48.882;12.598;2022-07-04T14:26:05;2.90;;;2.10;;
64903;SDS011;51401;48.882;12.598;2022-07-04T14:28:35;2.55;;;2.35;;
64903;SDS011;51401;48.882;12.598;2022-07-04T14:31:02;2.70;;;2.20;;
64903;SDS011;51401;48.882;12.598;2022-07-04T14:33:27;3.67;;;2.28;;
64903;SDS011;51401;48.882;12.598;2022-07-04T14:35:52;2.35;;;2.13;;
64903;SDS011;51401;48.882;12.598;2022-07-04T14:38:18;2.25;;;2.00;;
64903;SDS011;51401;48.882;12.598;2022-07-04T14:40:44;2.15;;;1.98;;
64903;SDS011;51401;48.882;12.598;2022-07-04T14:43:11;2.42;;;2.20;;
64903;SDS011;51401;48.882;12.598;2022-07-04T14:45:38;2.53;;;1.98;;
64903;SDS011;51401;48.882;12.598;2022-07-04T14:48:03;2.75;;;2.00;;
64903;SDS011;51401;48.882;12.598;2022-07-04T14:50:29;2.40;;;2.20;;
64903;SDS011;51401;48.882;12.598;2022-07-04T14:52:55;2.67;;;2.22;;
64903;SDS011;51401;48.882;12.598;2022-07-04T14:55:20;2.38;;;1.83;;
64903;SDS011;51401;48.882;12.598;2022-07-04T14:57:46;2.95;;;2.03;;
64903;SDS011;51401;48.882;12.598;2022-07-04T15:00:11;2.50;;;1.88;;
64903;SDS011;51401;48.882;12.598;2022-07-04T15:02:37;2.55;;;2.08;;
64903;SDS011;51401;48.882;12.598;2022-07-04T15:05:02;2.40;;;1.80;;
64903;SDS011;51401;48.882;12.598;2022-07-04T15:07:28;2.50;;;2.00;;
64903;SDS011;51401;48.882;12.598;2022-07-04T15:09:55;2.83;;;1.90;;
64903;SDS011;51401;48.882;12.598;2022-07-04T15:12:21;2.03;;;1.92;;
64903;SDS011;51401;48.882;12.598;2022-07-04T15:14:46;2.50;;;2.30;;
64903;SDS011;51401;48.882;12.598;2022-07-04T15:17:12;2.50;;;2.30;;
64903;SDS011;51401;48.882;12.598;2022-07-04T15:19:37;2.60;;;2.40;;
64903;SDS011;51401;48.882;12.598;2022-07-04T15:22:21;3.05;;;2.50;;
64903;SDS011;51401;48.882;12.598;2022-07-04T15:25:05;2.67;;;2.47;;
64903;SDS011;51401;48.882;12.598;2022-07-04T15:27:31;3.10;;;2.78;;
64903;SDS011;51401;48.882;12.598;2022-07-04T15:29:56;2.80;;;2.60;;